Weather at Aeródrome de Arcones

Public forecast

Using degrees Celsius for public forecast. Weather courtesy of forecast.io.

Closest aviation weather report (METAR) to Aeródrome de Arcones

Closest report is Adolfo Suárez Madrid–Barajas Airport, 39.4 nm (72.9 km) SSE. Retrieved 2021/04/17 17:00 UTC (22 minutes ago):

LEMD 171700Z 01008KT 340V070 9999 FEW080 17/M01 Q1016 NOSIG

Closest aviation forecast (TAF) to Aeródrome de Arcones

Closest forecast is Base Aérea de Colmenar Viejo, 25.1 nm (46.5 km) S. Retrieved 2021/04/17 12:00 UTC (5 hours ago):

TAF LETO 171100Z 1712/1812 03008KT CAVOK TX16/1716Z TN01/1806Z TAF LECV 171100Z 1712/1812 02009KT CAVOK TX14/1716Z TN00/1806Z